sensor_id;sensor_type;location;lat;lon;timestamp;P1;durP1;ratioP1;P2;durP2;ratioP2
8540;SDS011;4308;51.294;6.590;2024-03-22T00:01:52;30.47;;;20.93;;
8540;SDS011;4308;51.294;6.590;2024-03-22T00:04:19;30.80;;;20.80;;
8540;SDS011;4308;51.294;6.590;2024-03-22T00:06:47;30.30;;;21.17;;
8540;SDS011;4308;51.294;6.590;2024-03-22T00:09:14;33.00;;;20.30;;
8540;SDS011;4308;51.294;6.590;2024-03-22T00:11:41;32.03;;;21.27;;
8540;SDS011;4308;51.294;6.590;2024-03-22T00:14:08;29.57;;;20.80;;
8540;SDS011;4308;51.294;6.590;2024-03-22T00:16:35;30.03;;;21.20;;
8540;SDS011;4308;51.294;6.590;2024-03-22T00:19:02;37.67;;;22.17;;
8540;SDS011;4308;51.294;6.590;2024-03-22T00:21:29;30.70;;;20.87;;
8540;SDS011;4308;51.294;6.590;2024-03-22T00:23:56;33.53;;;21.07;;
8540;SDS011;4308;51.294;6.590;2024-03-22T00:26:23;33.93;;;21.03;;
8540;SDS011;4308;51.294;6.590;2024-03-22T00:28:50;30.53;;;20.47;;
8540;SDS011;4308;51.294;6.590;2024-03-22T00:31:16;35.77;;;21.40;;
8540;SDS011;4308;51.294;6.590;2024-03-22T00:33:43;32.93;;;20.77;;
8540;SDS011;4308;51.294;6.590;2024-03-22T00:36:10;35.70;;;21.97;;
8540;SDS011;4308;51.294;6.590;2024-03-22T00:38:36;31.47;;;20.97;;
8540;SDS011;4308;51.294;6.590;2024-03-22T00:41:02;32.93;;;20.67;;
8540;SDS011;4308;51.294;6.590;2024-03-22T00:43:29;36.00;;;21.67;;
8540;SDS011;4308;51.294;6.590;2024-03-22T00:45:55;34.10;;;22.00;;
8540;SDS011;4308;51.294;6.590;2024-03-22T00:48:21;32.27;;;21.33;;
8540;SDS011;4308;51.294;6.590;2024-03-22T00:50:48;35.93;;;22.13;;
8540;SDS011;4308;51.294;6.590;2024-03-22T00:53:14;36.87;;;22.20;;
8540;SDS011;4308;51.294;6.590;2024-03-22T00:55:40;32.00;;;20.57;;
8540;SDS011;4308;51.294;6.590;2024-03-22T00:58:07;32.50;;;21.37;;
8540;SDS011;4308;51.294;6.590;2024-03-22T01:00:33;35.60;;;21.50;;
8540;SDS011;4308;51.294;6.590;2024-03-22T01:02:59;35.27;;;21.37;;
8540;SDS011;4308;51.294;6.590;2024-03-22T01:05:26;37.63;;;22.30;;
8540;SDS011;4308;51.294;6.590;2024-03-22T01:07:52;36.27;;;21.83;;
8540;SDS011;4308;51.294;6.590;2024-03-22T01:10:18;35.33;;;21.73;;
8540;SDS011;4308;51.294;6.590;2024-03-22T01:12:45;32.87;;;20.80;;
8540;SDS011;4308;51.294;6.590;2024-03-22T01:15:11;36.67;;;22.43;;
8540;SDS011;4308;51.294;6.590;2024-03-22T01:17:37;37.63;;;22.50;;
8540;SDS011;4308;51.294;6.590;2024-03-22T01:20:04;33.80;;;21.30;;
8540;SDS011;4308;51.294;6.590;2024-03-22T01:22:30;35.17;;;21.53;;
8540;SDS011;4308;51.294;6.590;2024-03-22T01:24:57;37.50;;;21.97;;
8540;SDS011;4308;51.294;6.590;2024-03-22T01:27:23;35.87;;;22.27;;
8540;SDS011;4308;51.294;6.590;2024-03-22T01:29:49;36.50;;;22.67;;
8540;SDS011;4308;51.294;6.590;2024-03-22T01:32:16;37.20;;;21.33;;
8540;SDS011;4308;51.294;6.590;2024-03-22T01:34:42;36.17;;;21.67;;
8540;SDS011;4308;51.294;6.590;2024-03-22T01:37:08;38.43;;;22.43;;
8540;SDS011;4308;51.294;6.590;2024-03-22T01:39:35;39.93;;;22.97;;
8540;SDS011;4308;51.294;6.590;2024-03-22T01:42:01;38.00;;;22.67;;
8540;SDS011;4308;51.294;6.590;2024-03-22T01:44:28;37.20;;;22.70;;
8540;SDS011;4308;51.294;6.590;2024-03-22T01:46:54;37.17;;;22.87;;
8540;SDS011;4308;51.294;6.590;2024-03-22T01:49:22;37.30;;;23.03;;
8540;SDS011;4308;51.294;6.590;2024-03-22T01:51:50;35.63;;;22.70;;
8540;SDS011;4308;51.294;6.590;2024-03-22T01:54:17;37.43;;;22.57;;
8540;SDS011;4308;51.294;6.590;2024-03-22T01:56:43;38.50;;;23.27;;
8540;SDS011;4308;51.294;6.590;2024-03-22T01:59:09;39.30;;;23.20;;
8540;SDS011;4308;51.294;6.590;2024-03-22T02:01:36;35.50;;;22.73;;
8540;SDS011;4308;51.294;6.590;2024-03-22T02:04:02;35.63;;;21.73;;
8540;SDS011;4308;51.294;6.590;2024-03-22T02:06:29;36.30;;;22.83;;
8540;SDS011;4308;51.294;6.590;2024-03-22T02:08:56;36.63;;;22.27;;
8540;SDS011;4308;51.294;6.590;2024-03-22T02:11:24;39.33;;;24.37;;
8540;SDS011;4308;51.294;6.590;2024-03-22T02:13:51;36.57;;;22.40;;
8540;SDS011;4308;51.294;6.590;2024-03-22T02:16:18;37.60;;;21.73;;
8540;SDS011;4308;51.294;6.590;2024-03-22T02:18:44;36.57;;;22.43;;
8540;SDS011;4308;51.294;6.590;2024-03-22T02:21:11;35.30;;;23.47;;
8540;SDS011;4308;51.294;6.590;2024-03-22T02:23:38;35.53;;;21.20;;
8540;SDS011;4308;51.294;6.590;2024-03-22T02:26:05;37.60;;;22.37;;
8540;SDS011;4308;51.294;6.590;2024-03-22T02:28:33;38.83;;;22.77;;
8540;SDS011;4308;51.294;6.590;2024-03-22T02:31:00;33.53;;;22.20;;
8540;SDS011;4308;51.294;6.590;2024-03-22T02:33:28;34.67;;;22.20;;
8540;SDS011;4308;51.294;6.590;2024-03-22T02:35:54;36.73;;;22.97;;
8540;SDS011;4308;51.294;6.590;2024-03-22T02:38:20;38.73;;;21.83;;
8540;SDS011;4308;51.294;6.590;2024-03-22T02:40:48;35.67;;;21.27;;
8540;SDS011;4308;51.294;6.590;2024-03-22T02:43:15;33.70;;;21.67;;
8540;SDS011;4308;51.294;6.590;2024-03-22T02:45:41;35.73;;;22.70;;
8540;SDS011;4308;51.294;6.590;2024-03-22T02:48:08;33.50;;;21.60;;
8540;SDS011;4308;51.294;6.590;2024-03-22T02:50:34;34.03;;;22.50;;
8540;SDS011;4308;51.294;6.590;2024-03-22T02:53:04;38.70;;;22.80;;
8540;SDS011;4308;51.294;6.590;2024-03-22T02:55:35;36.10;;;22.80;;
8540;SDS011;4308;51.294;6.590;2024-03-22T02:58:06;33.60;;;22.00;;
8540;SDS011;4308;51.294;6.590;2024-03-22T03:00:37;36.67;;;24.03;;
8540;SDS011;4308;51.294;6.590;2024-03-22T03:03:04;35.83;;;23.20;;
8540;SDS011;4308;51.294;6.590;2024-03-22T03:05:31;38.37;;;23.87;;
8540;SDS011;4308;51.294;6.590;2024-03-22T03:07:57;36.07;;;23.13;;
8540;SDS011;4308;51.294;6.590;2024-03-22T03:10:24;39.03;;;23.47;;
8540;SDS011;4308;51.294;6.590;2024-03-22T03:12:50;43.10;;;24.00;;
8540;SDS011;4308;51.294;6.590;2024-03-22T03:15:17;40.33;;;24.10;;
8540;SDS011;4308;51.294;6.590;2024-03-22T03:17:43;41.10;;;24.57;;
8540;SDS011;4308;51.294;6.590;2024-03-22T03:20:10;36.53;;;23.37;;
8540;SDS011;4308;51.294;6.590;2024-03-22T03:22:36;39.07;;;23.87;;
8540;SDS011;4308;51.294;6.590;2024-03-22T03:25:03;39.53;;;23.43;;
8540;SDS011;4308;51.294;6.590;2024-03-22T03:27:30;41.20;;;25.03;;
8540;SDS011;4308;51.294;6.590;2024-03-22T03:29:56;39.57;;;24.57;;
8540;SDS011;4308;51.294;6.590;2024-03-22T03:32:23;37.93;;;23.87;;
8540;SDS011;4308;51.294;6.590;2024-03-22T03:34:49;39.23;;;23.43;;
8540;SDS011;4308;51.294;6.590;2024-03-22T03:37:16;38.47;;;24.63;;
8540;SDS011;4308;51.294;6.590;2024-03-22T03:39:42;47.27;;;25.43;;
8540;SDS011;4308;51.294;6.590;2024-03-22T03:42:09;46.30;;;24.60;;
8540;SDS011;4308;51.294;6.590;2024-03-22T03:44:36;40.40;;;24.90;;
8540;SDS011;4308;51.294;6.590;2024-03-22T03:47:02;44.63;;;25.77;;
8540;SDS011;4308;51.294;6.590;2024-03-22T03:49:29;39.63;;;25.03;;
8540;SDS011;4308;51.294;6.590;2024-03-22T03:51:55;40.33;;;26.03;;
8540;SDS011;4308;51.294;6.590;2024-03-22T03:54:21;45.87;;;25.57;;
8540;SDS011;4308;51.294;6.590;2024-03-22T03:56:48;45.07;;;25.93;;
8540;SDS011;4308;51.294;6.590;2024-03-22T03:59:14;41.90;;;24.60;;
8540;SDS011;4308;51.294;6.590;2024-03-22T04:01:40;41.80;;;26.17;;
8540;SDS011;4308;51.294;6.590;2024-03-22T04:04:07;42.10;;;27.10;;
8540;SDS011;4308;51.294;6.590;2024-03-22T04:06:33;44.93;;;27.13;;
8540;SDS011;4308;51.294;6.590;2024-03-22T04:08:59;40.20;;;26.67;;
8540;SDS011;4308;51.294;6.590;2024-03-22T04:11:26;40.93;;;25.03;;
8540;SDS011;4308;51.294;6.590;2024-03-22T04:13:52;46.20;;;27.40;;
8540;SDS011;4308;51.294;6.590;2024-03-22T04:16:18;42.20;;;26.07;;
8540;SDS011;4308;51.294;6.590;2024-03-22T04:18:45;34.77;;;25.40;;
8540;SDS011;4308;51.294;6.590;2024-03-22T04:21:11;40.37;;;26.23;;
8540;SDS011;4308;51.294;6.590;2024-03-22T04:23:37;39.00;;;25.37;;
8540;SDS011;4308;51.294;6.590;2024-03-22T04:26:04;45.30;;;27.40;;
8540;SDS011;4308;51.294;6.590;2024-03-22T04:28:30;40.33;;;25.90;;
8540;SDS011;4308;51.294;6.590;2024-03-22T04:31:03;36.30;;;25.57;;
8540;SDS011;4308;51.294;6.590;2024-03-22T04:33:32;40.50;;;25.03;;
8540;SDS011;4308;51.294;6.590;2024-03-22T04:35:59;40.00;;;24.93;;
8540;SDS011;4308;51.294;6.590;2024-03-22T04:38:26;40.30;;;25.47;;
8540;SDS011;4308;51.294;6.590;2024-03-22T04:40:53;36.40;;;24.83;;
8540;SDS011;4308;51.294;6.590;2024-03-22T04:43:20;37.03;;;23.90;;
8540;SDS011;4308;51.294;6.590;2024-03-22T04:45:47;35.20;;;23.53;;
8540;SDS011;4308;51.294;6.590;2024-03-22T04:48:14;35.23;;;24.17;;
8540;SDS011;4308;51.294;6.590;2024-03-22T04:50:42;37.93;;;24.67;;
8540;SDS011;4308;51.294;6.590;2024-03-22T04:53:09;34.60;;;23.20;;
8540;SDS011;4308;51.294;6.590;2024-03-22T04:55:35;33.00;;;23.67;;
8540;SDS011;4308;51.294;6.590;2024-03-22T04:58:02;34.83;;;23.30;;
8540;SDS011;4308;51.294;6.590;2024-03-22T05:00:28;33.90;;;22.83;;
8540;SDS011;4308;51.294;6.590;2024-03-22T05:02:54;36.80;;;22.13;;
8540;SDS011;4308;51.294;6.590;2024-03-22T05:05:21;34.37;;;22.07;;
8540;SDS011;4308;51.294;6.590;2024-03-22T05:07:47;29.77;;;21.70;;
8540;SDS011;4308;51.294;6.590;2024-03-22T05:10:14;30.80;;;21.43;;
8540;SDS011;4308;51.294;6.590;2024-03-22T05:12:40;29.47;;;21.83;;
8540;SDS011;4308;51.294;6.590;2024-03-22T05:15:06;29.93;;;20.77;;
8540;SDS011;4308;51.294;6.590;2024-03-22T05:17:33;30.40;;;20.30;;
8540;SDS011;4308;51.294;6.590;2024-03-22T05:19:59;30.47;;;20.90;;
8540;SDS011;4308;51.294;6.590;2024-03-22T05:22:26;31.57;;;20.00;;
8540;SDS011;4308;51.294;6.590;2024-03-22T05:24:53;28.30;;;19.83;;
8540;SDS011;4308;51.294;6.590;2024-03-22T05:27:19;28.57;;;20.07;;
8540;SDS011;4308;51.294;6.590;2024-03-22T05:29:46;29.17;;;20.43;;
8540;SDS011;4308;51.294;6.590;2024-03-22T05:32:12;30.70;;;19.30;;
8540;SDS011;4308;51.294;6.590;2024-03-22T05:34:38;28.67;;;19.97;;
8540;SDS011;4308;51.294;6.590;2024-03-22T05:37:05;27.97;;;18.73;;
8540;SDS011;4308;51.294;6.590;2024-03-22T05:39:31;28.47;;;18.63;;
8540;SDS011;4308;51.294;6.590;2024-03-22T05:41:57;28.27;;;18.17;;
8540;SDS011;4308;51.294;6.590;2024-03-22T05:44:24;25.77;;;17.77;;
8540;SDS011;4308;51.294;6.590;2024-03-22T05:46:50;27.10;;;19.77;;
8540;SDS011;4308;51.294;6.590;2024-03-22T05:49:16;26.17;;;18.87;;
8540;SDS011;4308;51.294;6.590;2024-03-22T05:51:43;26.73;;;18.60;;
8540;SDS011;4308;51.294;6.590;2024-03-22T05:54:09;28.43;;;19.20;;
8540;SDS011;4308;51.294;6.590;2024-03-22T05:56:36;27.77;;;17.27;;
8540;SDS011;4308;51.294;6.590;2024-03-22T05:59:02;25.20;;;18.10;;
8540;SDS011;4308;51.294;6.590;2024-03-22T06:01:28;26.93;;;18.20;;
8540;SDS011;4308;51.294;6.590;2024-03-22T06:03:55;24.67;;;16.93;;
8540;SDS011;4308;51.294;6.590;2024-03-22T06:06:21;24.40;;;18.07;;
8540;SDS011;4308;51.294;6.590;2024-03-22T06:08:48;27.90;;;20.52;;
8540;SDS011;4308;51.294;6.590;2024-03-22T06:11:14;25.23;;;17.93;;
8540;SDS011;4308;51.294;6.590;2024-03-22T06:13:41;26.13;;;17.33;;
8540;SDS011;4308;51.294;6.590;2024-03-22T06:16:08;23.30;;;17.07;;
8540;SDS011;4308;51.294;6.590;2024-03-22T06:18:34;25.03;;;18.30;;
8540;SDS011;4308;51.294;6.590;2024-03-22T06:21:01;26.90;;;18.30;;
8540;SDS011;4308;51.294;6.590;2024-03-22T06:23:27;27.03;;;18.60;;
8540;SDS011;4308;51.294;6.590;2024-03-22T06:25:54;24.17;;;17.70;;
8540;SDS011;4308;51.294;6.590;2024-03-22T06:28:21;25.77;;;17.60;;
8540;SDS011;4308;51.294;6.590;2024-03-22T06:30:48;25.53;;;17.23;;
8540;SDS011;4308;51.294;6.590;2024-03-22T06:33:15;26.57;;;17.57;;
8540;SDS011;4308;51.294;6.590;2024-03-22T06:35:41;26.03;;;17.70;;
8540;SDS011;4308;51.294;6.590;2024-03-22T06:38:07;23.00;;;17.57;;
8540;SDS011;4308;51.294;6.590;2024-03-22T06:40:34;26.00;;;16.73;;
8540;SDS011;4308;51.294;6.590;2024-03-22T06:43:01;31.40;;;18.10;;
8540;SDS011;4308;51.294;6.590;2024-03-22T06:45:27;26.70;;;17.73;;
8540;SDS011;4308;51.294;6.590;2024-03-22T06:47:54;29.23;;;17.83;;
8540;SDS011;4308;51.294;6.590;2024-03-22T06:50:20;25.63;;;17.87;;
8540;SDS011;4308;51.294;6.590;2024-03-22T06:52:53;23.20;;;16.30;;
8540;SDS011;4308;51.294;6.590;2024-03-22T06:55:20;27.10;;;17.97;;
8540;SDS011;4308;51.294;6.590;2024-03-22T06:57:47;25.70;;;17.50;;
8540;SDS011;4308;51.294;6.590;2024-03-22T07:00:14;24.83;;;16.87;;
8540;SDS011;4308;51.294;6.590;2024-03-22T07:02:41;24.57;;;17.50;;
8540;SDS011;4308;51.294;6.590;2024-03-22T07:05:08;25.50;;;17.53;;
8540;SDS011;4308;51.294;6.590;2024-03-22T07:07:35;25.40;;;17.53;;
8540;SDS011;4308;51.294;6.590;2024-03-22T07:10:02;26.70;;;17.10;;
8540;SDS011;4308;51.294;6.590;2024-03-22T07:12:29;22.50;;;17.40;;
8540;SDS011;4308;51.294;6.590;2024-03-22T07:14:55;23.93;;;16.73;;
8540;SDS011;4308;51.294;6.590;2024-03-22T07:17:22;24.47;;;16.47;;
8540;SDS011;4308;51.294;6.590;2024-03-22T07:19:48;27.00;;;16.70;;
8540;SDS011;4308;51.294;6.590;2024-03-22T07:22:15;23.67;;;16.50;;
8540;SDS011;4308;51.294;6.590;2024-03-22T07:24:41;24.40;;;16.80;;
8540;SDS011;4308;51.294;6.590;2024-03-22T07:27:08;28.30;;;16.97;;
8540;SDS011;4308;51.294;6.590;2024-03-22T07:29:34;23.40;;;16.73;;
8540;SDS011;4308;51.294;6.590;2024-03-22T07:32:00;23.67;;;16.50;;
8540;SDS011;4308;51.294;6.590;2024-03-22T07:34:27;23.73;;;17.10;;
8540;SDS011;4308;51.294;6.590;2024-03-22T07:36:53;23.27;;;17.47;;
8540;SDS011;4308;51.294;6.590;2024-03-22T07:39:23;24.80;;;17.63;;
8540;SDS011;4308;51.294;6.590;2024-03-22T07:41:49;24.23;;;16.30;;
8540;SDS011;4308;51.294;6.590;2024-03-22T07:44:16;24.47;;;16.07;;
8540;SDS011;4308;51.294;6.590;2024-03-22T07:46:46;25.10;;;16.17;;
8540;SDS011;4308;51.294;6.590;2024-03-22T07:49:12;24.80;;;17.67;;
8540;SDS011;4308;51.294;6.590;2024-03-22T07:51:39;28.00;;;18.40;;
8540;SDS011;4308;51.294;6.590;2024-03-22T07:54:05;25.43;;;17.70;;
8540;SDS011;4308;51.294;6.590;2024-03-22T07:56:32;25.23;;;17.30;;
8540;SDS011;4308;51.294;6.590;2024-03-22T07:58:58;23.47;;;17.53;;
8540;SDS011;4308;51.294;6.590;2024-03-22T08:01:24;23.53;;;17.37;;
8540;SDS011;4308;51.294;6.590;2024-03-22T08:03:51;22.87;;;16.87;;
8540;SDS011;4308;51.294;6.590;2024-03-22T08:06:17;22.97;;;16.83;;
8540;SDS011;4308;51.294;6.590;2024-03-22T08:08:44;25.13;;;16.33;;
8540;SDS011;4308;51.294;6.590;2024-03-22T08:11:10;24.07;;;17.43;;
8540;SDS011;4308;51.294;6.590;2024-03-22T08:13:37;24.50;;;16.60;;
8540;SDS011;4308;51.294;6.590;2024-03-22T08:16:03;23.23;;;16.57;;
8540;SDS011;4308;51.294;6.590;2024-03-22T08:18:30;22.70;;;16.70;;
8540;SDS011;4308;51.294;6.590;2024-03-22T08:20:56;25.20;;;16.77;;
8540;SDS011;4308;51.294;6.590;2024-03-22T08:23:23;23.93;;;16.93;;
8540;SDS011;4308;51.294;6.590;2024-03-22T08:25:49;21.30;;;16.10;;
8540;SDS011;4308;51.294;6.590;2024-03-22T08:28:16;23.43;;;16.20;;
8540;SDS011;4308;51.294;6.590;2024-03-22T08:30:42;22.97;;;15.37;;
8540;SDS011;4308;51.294;6.590;2024-03-22T08:33:09;21.43;;;13.57;;
8540;SDS011;4308;51.294;6.590;2024-03-22T08:35:36;20.97;;;15.37;;
8540;SDS011;4308;51.294;6.590;2024-03-22T08:38:03;21.60;;;15.63;;
8540;SDS011;4308;51.294;6.590;2024-03-22T08:40:29;23.07;;;15.63;;
8540;SDS011;4308;51.294;6.590;2024-03-22T08:42:55;21.07;;;14.53;;
8540;SDS011;4308;51.294;6.590;2024-03-22T08:45:22;24.13;;;16.93;;
8540;SDS011;4308;51.294;6.590;2024-03-22T08:47:48;21.67;;;16.27;;
8540;SDS011;4308;51.294;6.590;2024-03-22T08:50:14;23.40;;;15.10;;
8540;SDS011;4308;51.294;6.590;2024-03-22T08:52:41;24.73;;;15.97;;
8540;SDS011;4308;51.294;6.590;2024-03-22T08:55:07;23.00;;;16.43;;
8540;SDS011;4308;51.294;6.590;2024-03-22T08:57:33;19.63;;;15.60;;
8540;SDS011;4308;51.294;6.590;2024-03-22T09:00:00;23.00;;;16.07;;
8540;SDS011;4308;51.294;6.590;2024-03-22T09:02:29;21.50;;;16.33;;
8540;SDS011;4308;51.294;6.590;2024-03-22T09:04:55;20.10;;;16.17;;
8540;SDS011;4308;51.294;6.590;2024-03-22T09:07:22;21.43;;;15.70;;
8540;SDS011;4308;51.294;6.590;2024-03-22T09:09:48;19.77;;;14.20;;
8540;SDS011;4308;51.294;6.590;2024-03-22T09:12:14;17.77;;;13.50;;
8540;SDS011;4308;51.294;6.590;2024-03-22T09:14:41;19.33;;;14.13;;
8540;SDS011;4308;51.294;6.590;2024-03-22T09:17:07;15.97;;;12.30;;
8540;SDS011;4308;51.294;6.590;2024-03-22T09:19:33;20.80;;;13.40;;
8540;SDS011;4308;51.294;6.590;2024-03-22T09:22:00;16.83;;;11.87;;
8540;SDS011;4308;51.294;6.590;2024-03-22T09:24:26;16.87;;;12.60;;
8540;SDS011;4308;51.294;6.590;2024-03-22T09:26:53;16.67;;;12.60;;
8540;SDS011;4308;51.294;6.590;2024-03-22T09:29:19;15.73;;;11.77;;
8540;SDS011;4308;51.294;6.590;2024-03-22T09:31:45;16.23;;;12.20;;
8540;SDS011;4308;51.294;6.590;2024-03-22T09:34:12;19.93;;;13.27;;
8540;SDS011;4308;51.294;6.590;2024-03-22T09:36:38;18.33;;;11.80;;
8540;SDS011;4308;51.294;6.590;2024-03-22T09:39:05;14.40;;;11.43;;
8540;SDS011;4308;51.294;6.590;2024-03-22T09:41:31;15.60;;;9.53;;
8540;SDS011;4308;51.294;6.590;2024-03-22T09:43:58;14.53;;;10.10;;
8540;SDS011;4308;51.294;6.590;2024-03-22T09:46:28;14.90;;;11.43;;
8540;SDS011;4308;51.294;6.590;2024-03-22T09:48:54;16.83;;;9.67;;
8540;SDS011;4308;51.294;6.590;2024-03-22T09:51:22;15.80;;;9.70;;
8540;SDS011;4308;51.294;6.590;2024-03-22T09:53:49;17.57;;;9.90;;
8540;SDS011;4308;51.294;6.590;2024-03-22T09:56:20;11.43;;;8.60;;
8540;SDS011;4308;51.294;6.590;2024-03-22T09:58:47;11.57;;;8.10;;
8540;SDS011;4308;51.294;6.590;2024-03-22T10:01:13;13.40;;;8.80;;
8540;SDS011;4308;51.294;6.590;2024-03-22T10:03:41;12.60;;;9.00;;
8540;SDS011;4308;51.294;6.590;2024-03-22T10:06:08;11.07;;;7.50;;
8540;SDS011;4308;51.294;6.590;2024-03-22T10:08:35;11.60;;;8.20;;
8540;SDS011;4308;51.294;6.590;2024-03-22T10:11:02;11.27;;;8.37;;
8540;SDS011;4308;51.294;6.590;2024-03-22T10:13:28;14.60;;;8.03;;
8540;SDS011;4308;51.294;6.590;2024-03-22T10:15:55;11.87;;;8.47;;
8540;SDS011;4308;51.294;6.590;2024-03-22T10:18:22;12.13;;;7.50;;
8540;SDS011;4308;51.294;6.590;2024-03-22T10:20:58;14.03;;;8.43;;
8540;SDS011;4308;51.294;6.590;2024-03-22T10:23:31;11.93;;;8.40;;
8540;SDS011;4308;51.294;6.590;2024-03-22T10:26:00;13.43;;;8.43;;
8540;SDS011;4308;51.294;6.590;2024-03-22T10:28:27;12.23;;;9.77;;
8540;SDS011;4308;51.294;6.590;2024-03-22T10:30:53;15.17;;;9.17;;
8540;SDS011;4308;51.294;6.590;2024-03-22T10:33:20;11.93;;;9.67;;
8540;SDS011;4308;51.294;6.590;2024-03-22T10:35:47;11.07;;;9.17;;
8540;SDS011;4308;51.294;6.590;2024-03-22T10:38:18;11.57;;;8.87;;
8540;SDS011;4308;51.294;6.590;2024-03-22T10:40:45;12.20;;;9.13;;
8540;SDS011;4308;51.294;6.590;2024-03-22T10:43:15;12.93;;;9.60;;
8540;SDS011;4308;51.294;6.590;2024-03-22T10:45:42;12.57;;;8.90;;
8540;SDS011;4308;51.294;6.590;2024-03-22T10:48:11;13.97;;;10.13;;
8540;SDS011;4308;51.294;6.590;2024-03-22T10:50:41;13.27;;;8.70;;
8540;SDS011;4308;51.294;6.590;2024-03-22T10:53:13;16.60;;;9.93;;
8540;SDS011;4308;51.294;6.590;2024-03-22T10:55:43;13.53;;;9.87;;
8540;SDS011;4308;51.294;6.590;2024-03-22T10:58:22;14.27;;;9.80;;
8540;SDS011;4308;51.294;6.590;2024-03-22T11:00:52;15.83;;;10.60;;
8540;SDS011;4308;51.294;6.590;2024-03-22T11:03:20;12.70;;;9.60;;
8540;SDS011;4308;51.294;6.590;2024-03-22T11:05:48;10.97;;;9.80;;
8540;SDS011;4308;51.294;6.590;2024-03-22T11:08:29;11.10;;;8.67;;
8540;SDS011;4308;51.294;6.590;2024-03-22T11:11:09;13.17;;;9.37;;
8540;SDS011;4308;51.294;6.590;2024-03-22T11:13:36;13.53;;;9.00;;
8540;SDS011;4308;51.294;6.590;2024-03-22T11:16:05;14.47;;;10.10;;
8540;SDS011;4308;51.294;6.590;2024-03-22T11:18:31;14.50;;;9.60;;
8540;SDS011;4308;51.294;6.590;2024-03-22T11:20:59;12.60;;;9.93;;
8540;SDS011;4308;51.294;6.590;2024-03-22T11:23:25;14.57;;;10.23;;
8540;SDS011;4308;51.294;6.590;2024-03-22T11:25:51;13.50;;;9.87;;
8540;SDS011;4308;51.294;6.590;2024-03-22T11:28:18;13.00;;;10.37;;
8540;SDS011;4308;51.294;6.590;2024-03-22T11:30:44;15.53;;;11.03;;
8540;SDS011;4308;51.294;6.590;2024-03-22T11:33:11;15.17;;;10.73;;
8540;SDS011;4308;51.294;6.590;2024-03-22T11:35:38;15.70;;;10.80;;
8540;SDS011;4308;51.294;6.590;2024-03-22T11:38:04;15.50;;;11.47;;
8540;SDS011;4308;51.294;6.590;2024-03-22T11:40:30;10.13;;;8.87;;
8540;SDS011;4308;51.294;6.590;2024-03-22T11:42:57;15.43;;;8.97;;
8540;SDS011;4308;51.294;6.590;2024-03-22T11:45:24;12.67;;;9.23;;
8540;SDS011;4308;51.294;6.590;2024-03-22T11:47:53;9.70;;;8.37;;
8540;SDS011;4308;51.294;6.590;2024-03-22T11:50:19;10.83;;;8.70;;
8540;SDS011;4308;51.294;6.590;2024-03-22T11:52:46;14.90;;;8.73;;
8540;SDS011;4308;51.294;6.590;2024-03-22T11:55:13;15.83;;;8.47;;
8540;SDS011;4308;51.294;6.590;2024-03-22T11:57:40;12.23;;;8.73;;
8540;SDS011;4308;51.294;6.590;2024-03-22T12:00:07;12.83;;;8.80;;
8540;SDS011;4308;51.294;6.590;2024-03-22T12:02:37;18.07;;;9.37;;
8540;SDS011;4308;51.294;6.590;2024-03-22T12:05:04;12.27;;;9.23;;
8540;SDS011;4308;51.294;6.590;2024-03-22T12:07:31;12.50;;;9.50;;
8540;SDS011;4308;51.294;6.590;2024-03-22T12:09:57;13.27;;;8.40;;
8540;SDS011;4308;51.294;6.590;2024-03-22T12:12:24;12.80;;;8.73;;
8540;SDS011;4308;51.294;6.590;2024-03-22T12:14:51;11.53;;;9.43;;
8540;SDS011;4308;51.294;6.590;2024-03-22T12:17:17;12.83;;;9.97;;
8540;SDS011;4308;51.294;6.590;2024-03-22T12:19:44;12.03;;;9.73;;
8540;SDS011;4308;51.294;6.590;2024-03-22T12:22:10;14.23;;;10.00;;
8540;SDS011;4308;51.294;6.590;2024-03-22T12:24:36;13.37;;;10.33;;
8540;SDS011;4308;51.294;6.590;2024-03-22T12:27:03;14.23;;;10.43;;
8540;SDS011;4308;51.294;6.590;2024-03-22T12:29:33;15.30;;;10.63;;
8540;SDS011;4308;51.294;6.590;2024-03-22T12:32:00;13.27;;;10.23;;
8540;SDS011;4308;51.294;6.590;2024-03-22T12:34:27;12.67;;;10.00;;
8540;SDS011;4308;51.294;6.590;2024-03-22T12:36:54;15.73;;;11.63;;
8540;SDS011;4308;51.294;6.590;2024-03-22T12:39:20;15.00;;;11.23;;
8540;SDS011;4308;51.294;6.590;2024-03-22T12:41:47;13.50;;;9.20;;
8540;SDS011;4308;51.294;6.590;2024-03-22T12:44:13;14.07;;;10.67;;
8540;SDS011;4308;51.294;6.590;2024-03-22T12:46:40;16.63;;;11.17;;
8540;SDS011;4308;51.294;6.590;2024-03-22T12:49:06;14.37;;;10.30;;
8540;SDS011;4308;51.294;6.590;2024-03-22T12:51:33;16.40;;;10.13;;
8540;SDS011;4308;51.294;6.590;2024-03-22T12:54:00;12.23;;;10.30;;
8540;SDS011;4308;51.294;6.590;2024-03-22T12:56:27;15.03;;;11.60;;
8540;SDS011;4308;51.294;6.590;2024-03-22T12:58:53;14.97;;;11.30;;
8540;SDS011;4308;51.294;6.590;2024-03-22T13:01:20;15.60;;;11.20;;
8540;SDS011;4308;51.294;6.590;2024-03-22T13:03:47;16.40;;;11.23;;
8540;SDS011;4308;51.294;6.590;2024-03-22T13:06:13;14.40;;;11.13;;
8540;SDS011;4308;51.294;6.590;2024-03-22T13:08:39;16.80;;;10.80;;
8540;SDS011;4308;51.294;6.590;2024-03-22T13:11:06;15.20;;;11.00;;
8540;SDS011;4308;51.294;6.590;2024-03-22T13:13:32;14.37;;;11.63;;
8540;SDS011;4308;51.294;6.590;2024-03-22T13:15:58;15.77;;;11.83;;
8540;SDS011;4308;51.294;6.590;2024-03-22T13:18:25;15.67;;;12.03;;
8540;SDS011;4308;51.294;6.590;2024-03-22T13:20:51;18.17;;;11.13;;
8540;SDS011;4308;51.294;6.590;2024-03-22T13:23:17;17.07;;;12.30;;
8540;SDS011;4308;51.294;6.590;2024-03-22T13:25:44;16.40;;;11.27;;
8540;SDS011;4308;51.294;6.590;2024-03-22T13:28:10;15.37;;;11.23;;
8540;SDS011;4308;51.294;6.590;2024-03-22T13:30:37;14.53;;;12.03;;
8540;SDS011;4308;51.294;6.590;2024-03-22T13:33:03;16.87;;;10.40;;
8540;SDS011;4308;51.294;6.590;2024-03-22T13:35:30;15.00;;;10.73;;
8540;SDS011;4308;51.294;6.590;2024-03-22T13:37:56;12.53;;;10.47;;
8540;SDS011;4308;51.294;6.590;2024-03-22T13:40:23;14.27;;;10.93;;
8540;SDS011;4308;51.294;6.590;2024-03-22T13:42:52;12.73;;;10.20;;
8540;SDS011;4308;51.294;6.590;2024-03-22T13:45:19;13.47;;;11.57;;
8540;SDS011;4308;51.294;6.590;2024-03-22T13:47:45;15.70;;;12.30;;
8540;SDS011;4308;51.294;6.590;2024-03-22T13:50:12;14.80;;;12.43;;
8540;SDS011;4308;51.294;6.590;2024-03-22T13:52:38;14.90;;;12.43;;
8540;SDS011;4308;51.294;6.590;2024-03-22T13:55:05;15.70;;;12.20;;
8540;SDS011;4308;51.294;6.590;2024-03-22T13:57:31;14.53;;;11.97;;
8540;SDS011;4308;51.294;6.590;2024-03-22T13:59:58;14.30;;;11.87;;
8540;SDS011;4308;51.294;6.590;2024-03-22T14:02:25;19.20;;;13.33;;
8540;SDS011;4308;51.294;6.590;2024-03-22T14:04:51;14.23;;;12.60;;
8540;SDS011;4308;51.294;6.590;2024-03-22T14:07:17;14.40;;;11.97;;
8540;SDS011;4308;51.294;6.590;2024-03-22T14:09:44;14.50;;;13.00;;
8540;SDS011;4308;51.294;6.590;2024-03-22T14:12:10;19.70;;;13.30;;
8540;SDS011;4308;51.294;6.590;2024-03-22T14:14:37;16.60;;;13.17;;
8540;SDS011;4308;51.294;6.590;2024-03-22T14:17:03;20.23;;;12.87;;
8540;SDS011;4308;51.294;6.590;2024-03-22T14:19:29;16.20;;;13.77;;
8540;SDS011;4308;51.294;6.590;2024-03-22T14:21:55;15.77;;;13.77;;
8540;SDS011;4308;51.294;6.590;2024-03-22T14:24:22;15.00;;;12.73;;
8540;SDS011;4308;51.294;6.590;2024-03-22T14:26:48;15.80;;;13.40;;
8540;SDS011;4308;51.294;6.590;2024-03-22T14:29:14;15.73;;;13.23;;
8540;SDS011;4308;51.294;6.590;2024-03-22T14:31:41;19.17;;;14.53;;
8540;SDS011;4308;51.294;6.590;2024-03-22T14:34:08;18.97;;;14.13;;
8540;SDS011;4308;51.294;6.590;2024-03-22T14:36:34;22.00;;;14.13;;
8540;SDS011;4308;51.294;6.590;2024-03-22T14:39:01;16.57;;;14.80;;
8540;SDS011;4308;51.294;6.590;2024-03-22T14:41:27;17.87;;;14.93;;
8540;SDS011;4308;51.294;6.590;2024-03-22T14:43:53;16.83;;;14.97;;
8540;SDS011;4308;51.294;6.590;2024-03-22T14:46:20;19.60;;;14.83;;
8540;SDS011;4308;51.294;6.590;2024-03-22T14:48:46;22.77;;;14.87;;